sensor_id;sensor_type;location;lat;lon;timestamp;temperature;humidity
9658;DHT22;4867;48.112;11.622;2023-05-07T00:00:50;13.10;99.90
9658;DHT22;4867;48.112;11.622;2023-05-07T00:03:18;13.10;99.90
9658;DHT22;4867;48.112;11.622;2023-05-07T00:05:46;13.10;99.90
9658;DHT22;4867;48.112;11.622;2023-05-07T00:08:13;13.10;99.90
9658;DHT22;4867;48.112;11.622;2023-05-07T00:10:41;13.00;99.90
9658;DHT22;4867;48.112;11.622;2023-05-07T00:13:08;13.00;99.90
9658;DHT22;4867;48.112;11.622;2023-05-07T00:15:35;13.00;99.90
9658;DHT22;4867;48.112;11.622;2023-05-07T00:18:02;12.90;99.90
9658;DHT22;4867;48.112;11.622;2023-05-07T00:20:30;13.00;99.90
9658;DHT22;4867;48.112;11.622;2023-05-07T00:22:57;13.00;99.90
9658;DHT22;4867;48.112;11.622;2023-05-07T00:25:24;12.90;99.90
9658;DHT22;4867;48.112;11.622;2023-05-07T00:27:52;12.90;99.90
9658;DHT22;4867;48.112;11.622;2023-05-07T00:30:19;12.90;99.90
9658;DHT22;4867;48.112;11.622;2023-05-07T00:32:46;12.80;99.90
9658;DHT22;4867;48.112;11.622;2023-05-07T00:35:15;12.90;99.90
9658;DHT22;4867;48.112;11.622;2023-05-07T00:37:43;12.90;99.90
9658;DHT22;4867;48.112;11.622;2023-05-07T00:40:10;12.80;99.90
9658;DHT22;4867;48.112;11.622;2023-05-07T00:42:38;12.80;99.90
9658;DHT22;4867;48.112;11.622;2023-05-07T00:45:06;12.90;99.90
9658;DHT22;4867;48.112;11.622;2023-05-07T00:47:36;12.80;99.90
9658;DHT22;4867;48.112;11.622;2023-05-07T00:50:04;12.70;99.90
9658;DHT22;4867;48.112;11.622;2023-05-07T00:52:33;12.70;99.90
9658;DHT22;4867;48.112;11.622;2023-05-07T00:55:05;12.70;99.90
9658;DHT22;4867;48.112;11.622;2023-05-07T00:57:40;12.70;99.90
9658;DHT22;4867;48.112;11.622;2023-05-07T01:00:09;12.70;99.90
9658;DHT22;4867;48.112;11.622;2023-05-07T01:02:37;12.70;99.90
9658;DHT22;4867;48.112;11.622;2023-05-07T01:05:07;12.70;99.90
9658;DHT22;4867;48.112;11.622;2023-05-07T01:07:36;12.60;99.90
9658;DHT22;4867;48.112;11.622;2023-05-07T01:10:05;12.60;99.90
9658;DHT22;4867;48.112;11.622;2023-05-07T01:12:34;12.60;99.90
9658;DHT22;4867;48.112;11.622;2023-05-07T01:15:03;12.60;99.90
9658;DHT22;4867;48.112;11.622;2023-05-07T01:17:40;12.60;99.90
9658;DHT22;4867;48.112;11.622;2023-05-07T01:20:12;12.60;99.90
9658;DHT22;4867;48.112;11.622;2023-05-07T01:22:43;12.60;99.90
9658;DHT22;4867;48.112;11.622;2023-05-07T01:25:11;12.70;99.90
9658;DHT22;4867;48.112;11.622;2023-05-07T01:27:43;12.60;99.90
9658;DHT22;4867;48.112;11.622;2023-05-07T01:30:11;12.70;99.90
9658;DHT22;4867;48.112;11.622;2023-05-07T01:32:48;12.60;99.90
9658;DHT22;4867;48.112;11.622;2023-05-07T01:35:19;12.70;99.90
9658;DHT22;4867;48.112;11.622;2023-05-07T01:37:48;12.60;99.90
9658;DHT22;4867;48.112;11.622;2023-05-07T01:40:16;12.70;99.90
9658;DHT22;4867;48.112;11.622;2023-05-07T01:42:44;12.60;99.90
9658;DHT22;4867;48.112;11.622;2023-05-07T01:45:12;12.60;99.90
9658;DHT22;4867;48.112;11.622;2023-05-07T01:47:39;12.60;99.90
9658;DHT22;4867;48.112;11.622;2023-05-07T01:50:07;12.60;99.90
9658;DHT22;4867;48.112;11.622;2023-05-07T01:52:38;12.60;99.90
9658;DHT22;4867;48.112;11.622;2023-05-07T01:55:06;12.50;99.90
9658;DHT22;4867;48.112;11.622;2023-05-07T01:57:34;12.50;99.90
9658;DHT22;4867;48.112;11.622;2023-05-07T02:00:01;12.60;99.90
9658;DHT22;4867;48.112;11.622;2023-05-07T02:02:41;12.40;99.90
9658;DHT22;4867;48.112;11.622;2023-05-07T02:05:19;12.40;99.90
9658;DHT22;4867;48.112;11.622;2023-05-07T02:07:54;12.40;99.90
9658;DHT22;4867;48.112;11.622;2023-05-07T02:10:22;12.30;99.90
9658;DHT22;4867;48.112;11.622;2023-05-07T02:12:49;12.30;99.90
9658;DHT22;4867;48.112;11.622;2023-05-07T02:15:17;12.30;99.90
9658;DHT22;4867;48.112;11.622;2023-05-07T02:18:02;12.30;99.90
9658;DHT22;4867;48.112;11.622;2023-05-07T02:20:30;12.30;99.90
9658;DHT22;4867;48.112;11.622;2023-05-07T02:22:58;12.30;99.90
9658;DHT22;4867;48.112;11.622;2023-05-07T02:25:27;12.30;99.90
9658;DHT22;4867;48.112;11.622;2023-05-07T02:27:54;12.20;99.90
9658;DHT22;4867;48.112;11.622;2023-05-07T02:30:28;12.20;99.90
9658;DHT22;4867;48.112;11.622;2023-05-07T02:32:57;12.20;99.90
9658;DHT22;4867;48.112;11.622;2023-05-07T02:35:25;12.20;99.90
9658;DHT22;4867;48.112;11.622;2023-05-07T02:37:53;12.20;99.90
9658;DHT22;4867;48.112;11.622;2023-05-07T02:40:21;12.20;99.90
9658;DHT22;4867;48.112;11.622;2023-05-07T02:42:49;12.20;99.90
9658;DHT22;4867;48.112;11.622;2023-05-07T02:45:16;12.20;99.90
9658;DHT22;4867;48.112;11.622;2023-05-07T02:47:45;12.20;99.90
9658;DHT22;4867;48.112;11.622;2023-05-07T02:50:13;12.20;99.90
9658;DHT22;4867;48.112;11.622;2023-05-07T02:52:41;12.20;99.90
9658;DHT22;4867;48.112;11.622;2023-05-07T02:55:09;12.10;99.90
9658;DHT22;4867;48.112;11.622;2023-05-07T02:57:36;12.10;99.90
9658;DHT22;4867;48.112;11.622;2023-05-07T03:00:15;12.10;99.90
9658;DHT22;4867;48.112;11.622;2023-05-07T03:02:51;12.00;99.90
9658;DHT22;4867;48.112;11.622;2023-05-07T03:05:18;11.90;99.90
9658;DHT22;4867;48.112;11.622;2023-05-07T03:07:46;12.00;99.90
9658;DHT22;4867;48.112;11.622;2023-05-07T03:10:14;11.90;99.90
9658;DHT22;4867;48.112;11.622;2023-05-07T03:12:42;11.90;99.90
9658;DHT22;4867;48.112;11.622;2023-05-07T03:15:15;11.90;99.90
9658;DHT22;4867;48.112;11.622;2023-05-07T03:17:42;11.90;99.90
9658;DHT22;4867;48.112;11.622;2023-05-07T03:20:09;11.80;99.90
9658;DHT22;4867;48.112;11.622;2023-05-07T03:22:39;11.80;99.90
9658;DHT22;4867;48.112;11.622;2023-05-07T03:25:07;11.90;99.90
9658;DHT22;4867;48.112;11.622;2023-05-07T03:27:34;11.80;99.90
9658;DHT22;4867;48.112;11.622;2023-05-07T03:30:02;11.80;99.90
9658;DHT22;4867;48.112;11.622;2023-05-07T03:32:29;11.80;99.90
9658;DHT22;4867;48.112;11.622;2023-05-07T03:34:56;11.80;99.90
9658;DHT22;4867;48.112;11.622;2023-05-07T03:37:24;11.80;99.90
9658;DHT22;4867;48.112;11.622;2023-05-07T03:39:51;11.80;99.90
9658;DHT22;4867;48.112;11.622;2023-05-07T03:42:19;11.80;99.90
9658;DHT22;4867;48.112;11.622;2023-05-07T03:44:49;12.00;99.90
9658;DHT22;4867;48.112;11.622;2023-05-07T03:47:17;11.70;99.90
9658;DHT22;4867;48.112;11.622;2023-05-07T03:49:46;11.80;99.90
9658;DHT22;4867;48.112;11.622;2023-05-07T03:52:15;11.70;99.90
9658;DHT22;4867;48.112;11.622;2023-05-07T03:54:42;11.80;99.90
9658;DHT22;4867;48.112;11.622;2023-05-07T03:57:11;11.70;99.90
9658;DHT22;4867;48.112;11.622;2023-05-07T03:59:39;11.70;99.90
9658;DHT22;4867;48.112;11.622;2023-05-07T04:02:08;11.80;99.90
9658;DHT22;4867;48.112;11.622;2023-05-07T04:04:35;11.70;99.90
9658;DHT22;4867;48.112;11.622;2023-05-07T04:07:03;11.70;99.90
9658;DHT22;4867;48.112;11.622;2023-05-07T04:09:36;11.60;99.90
9658;DHT22;4867;48.112;11.622;2023-05-07T04:12:04;11.70;99.90
9658;DHT22;4867;48.112;11.622;2023-05-07T04:14:32;11.70;99.90
9658;DHT22;4867;48.112;11.622;2023-05-07T04:17:00;11.70;99.90
9658;DHT22;4867;48.112;11.622;2023-05-07T04:19:28;11.70;99.90
9658;DHT22;4867;48.112;11.622;2023-05-07T04:21:55;11.80;99.90
9658;DHT22;4867;48.112;11.622;2023-05-07T04:24:23;11.70;99.90
9658;DHT22;4867;48.112;11.622;2023-05-07T04:26:50;11.70;99.90
9658;DHT22;4867;48.112;11.622;2023-05-07T04:29:20;11.70;99.90
9658;DHT22;4867;48.112;11.622;2023-05-07T04:31:48;11.70;99.90
9658;DHT22;4867;48.112;11.622;2023-05-07T04:34:15;11.80;99.90
9658;DHT22;4867;48.112;11.622;2023-05-07T04:36:42;11.80;99.90
9658;DHT22;4867;48.112;11.622;2023-05-07T04:39:13;11.80;99.90
9658;DHT22;4867;48.112;11.622;2023-05-07T04:41:43;11.90;99.90
9658;DHT22;4867;48.112;11.622;2023-05-07T04:44:11;12.00;99.90
9658;DHT22;4867;48.112;11.622;2023-05-07T04:46:39;12.10;99.90
9658;DHT22;4867;48.112;11.622;2023-05-07T04:49:06;12.10;99.90
9658;DHT22;4867;48.112;11.622;2023-05-07T04:51:34;12.30;99.90
9658;DHT22;4867;48.112;11.622;2023-05-07T04:54:02;12.30;99.90
9658;DHT22;4867;48.112;11.622;2023-05-07T04:56:30;12.40;99.90
9658;DHT22;4867;48.112;11.622;2023-05-07T04:58:59;12.30;99.90
9658;DHT22;4867;48.112;11.622;2023-05-07T05:01:27;12.40;99.90
9658;DHT22;4867;48.112;11.622;2023-05-07T05:03:55;12.40;99.90
9658;DHT22;4867;48.112;11.622;2023-05-07T05:06:22;12.40;99.90
9658;DHT22;4867;48.112;11.622;2023-05-07T05:08:50;12.40;99.90
9658;DHT22;4867;48.112;11.622;2023-05-07T05:11:18;12.50;99.90
9658;DHT22;4867;48.112;11.622;2023-05-07T05:13:45;12.50;99.90
9658;DHT22;4867;48.112;11.622;2023-05-07T05:16:17;12.50;99.90
9658;DHT22;4867;48.112;11.622;2023-05-07T05:18:45;12.40;99.90
9658;DHT22;4867;48.112;11.622;2023-05-07T05:21:15;12.50;99.90
9658;DHT22;4867;48.112;11.622;2023-05-07T05:23:44;12.50;99.90
9658;DHT22;4867;48.112;11.622;2023-05-07T05:26:14;12.70;99.90
9658;DHT22;4867;48.112;11.622;2023-05-07T05:28:41;12.90;99.90
9658;DHT22;4867;48.112;11.622;2023-05-07T05:31:08;12.90;99.90
9658;DHT22;4867;48.112;11.622;2023-05-07T05:33:36;13.00;99.90
9658;DHT22;4867;48.112;11.622;2023-05-07T05:36:05;13.10;99.90
9658;DHT22;4867;48.112;11.622;2023-05-07T05:38:33;13.20;99.90
9658;DHT22;4867;48.112;11.622;2023-05-07T05:41:00;13.20;99.90
9658;DHT22;4867;48.112;11.622;2023-05-07T05:43:29;13.30;99.90
9658;DHT22;4867;48.112;11.622;2023-05-07T05:45:57;13.40;99.90
9658;DHT22;4867;48.112;11.622;2023-05-07T05:48:25;13.50;99.90
9658;DHT22;4867;48.112;11.622;2023-05-07T05:50:53;13.60;99.90
9658;DHT22;4867;48.112;11.622;2023-05-07T05:53:20;13.80;99.90
9658;DHT22;4867;48.112;11.622;2023-05-07T05:55:47;13.90;99.90
9658;DHT22;4867;48.112;11.622;2023-05-07T05:58:16;14.10;99.90
9658;DHT22;4867;48.112;11.622;2023-05-07T06:00:50;14.20;99.90
9658;DHT22;4867;48.112;11.622;2023-05-07T06:03:22;14.50;99.90
9658;DHT22;4867;48.112;11.622;2023-05-07T06:05:50;14.50;99.90
9658;DHT22;4867;48.112;11.622;2023-05-07T06:08:20;14.60;99.90
9658;DHT22;4867;48.112;11.622;2023-05-07T06:10:47;14.80;99.90
9658;DHT22;4867;48.112;11.622;2023-05-07T06:13:15;14.90;99.90
9658;DHT22;4867;48.112;11.622;2023-05-07T06:15:43;15.10;99.90
9658;DHT22;4867;48.112;11.622;2023-05-07T06:18:12;15.30;99.90
9658;DHT22;4867;48.112;11.622;2023-05-07T06:20:40;15.40;99.90
9658;DHT22;4867;48.112;11.622;2023-05-07T06:23:14;15.50;99.90
9658;DHT22;4867;48.112;11.622;2023-05-07T06:25:50;15.70;99.90
9658;DHT22;4867;48.112;11.622;2023-05-07T06:28:21;15.80;99.90
9658;DHT22;4867;48.112;11.622;2023-05-07T06:30:49;16.00;99.90
9658;DHT22;4867;48.112;11.622;2023-05-07T06:33:17;16.00;99.90
9658;DHT22;4867;48.112;11.622;2023-05-07T06:35:46;16.10;99.90
9658;DHT22;4867;48.112;11.622;2023-05-07T06:38:14;16.20;99.90
9658;DHT22;4867;48.112;11.622;2023-05-07T06:40:49;16.30;99.90
9658;DHT22;4867;48.112;11.622;2023-05-07T06:43:16;16.40;99.90
9658;DHT22;4867;48.112;11.622;2023-05-07T06:46:02;16.50;99.90
9658;DHT22;4867;48.112;11.622;2023-05-07T06:48:29;16.60;99.90
9658;DHT22;4867;48.112;11.622;2023-05-07T06:51:01;16.80;99.90
9658;DHT22;4867;48.112;11.622;2023-05-07T06:53:30;16.80;99.90
9658;DHT22;4867;48.112;11.622;2023-05-07T06:55:59;17.00;99.90
9658;DHT22;4867;48.112;11.622;2023-05-07T06:58:27;17.10;99.90
9658;DHT22;4867;48.112;11.622;2023-05-07T07:00:54;17.20;99.90
9658;DHT22;4867;48.112;11.622;2023-05-07T07:03:22;17.30;99.90
9658;DHT22;4867;48.112;11.622;2023-05-07T07:05:54;17.50;99.90
9658;DHT22;4867;48.112;11.622;2023-05-07T07:08:22;17.50;99.90
9658;DHT22;4867;48.112;11.622;2023-05-07T07:10:50;17.50;99.90
9658;DHT22;4867;48.112;11.622;2023-05-07T07:13:18;17.50;99.90
9658;DHT22;4867;48.112;11.622;2023-05-07T07:15:46;17.60;99.90
9658;DHT22;4867;48.112;11.622;2023-05-07T07:18:13;17.70;99.90
9658;DHT22;4867;48.112;11.622;2023-05-07T07:20:41;17.80;99.90
9658;DHT22;4867;48.112;11.622;2023-05-07T07:23:08;17.90;99.90
9658;DHT22;4867;48.112;11.622;2023-05-07T07:25:35;18.00;99.90
9658;DHT22;4867;48.112;11.622;2023-05-07T07:28:03;18.20;99.90
9658;DHT22;4867;48.112;11.622;2023-05-07T07:30:30;18.30;99.90
9658;DHT22;4867;48.112;11.622;2023-05-07T07:32:58;18.30;99.90
9658;DHT22;4867;48.112;11.622;2023-05-07T07:35:33;18.50;99.90
9658;DHT22;4867;48.112;11.622;2023-05-07T07:38:01;18.60;99.90
9658;DHT22;4867;48.112;11.622;2023-05-07T07:40:29;18.80;99.90
9658;DHT22;4867;48.112;11.622;2023-05-07T07:42:57;18.80;99.90
9658;DHT22;4867;48.112;11.622;2023-05-07T07:45:25;18.90;99.90
9658;DHT22;4867;48.112;11.622;2023-05-07T07:47:52;19.00;99.90
9658;DHT22;4867;48.112;11.622;2023-05-07T07:50:20;19.10;99.90
9658;DHT22;4867;48.112;11.622;2023-05-07T07:53:07;19.20;99.90
9658;DHT22;4867;48.112;11.622;2023-05-07T07:55:39;19.20;99.90
9658;DHT22;4867;48.112;11.622;2023-05-07T07:58:07;19.30;99.90
9658;DHT22;4867;48.112;11.622;2023-05-07T08:00:34;19.30;99.90
9658;DHT22;4867;48.112;11.622;2023-05-07T08:03:02;19.50;99.90
9658;DHT22;4867;48.112;11.622;2023-05-07T08:05:34;19.60;99.90
9658;DHT22;4867;48.112;11.622;2023-05-07T08:08:04;19.60;99.90
9658;DHT22;4867;48.112;11.622;2023-05-07T08:10:33;19.80;99.90
9658;DHT22;4867;48.112;11.622;2023-05-07T08:13:07;19.70;99.90
9658;DHT22;4867;48.112;11.622;2023-05-07T08:15:37;19.80;99.90
9658;DHT22;4867;48.112;11.622;2023-05-07T08:18:05;19.90;99.90
9658;DHT22;4867;48.112;11.622;2023-05-07T08:20:33;19.90;99.90
9658;DHT22;4867;48.112;11.622;2023-05-07T08:23:04;20.00;99.90
9658;DHT22;4867;48.112;11.622;2023-05-07T08:25:33;20.10;99.90
9658;DHT22;4867;48.112;11.622;2023-05-07T08:28:01;20.10;99.90
9658;DHT22;4867;48.112;11.622;2023-05-07T08:30:29;20.30;99.90
9658;DHT22;4867;48.112;11.622;2023-05-07T08:32:56;20.40;99.90
9658;DHT22;4867;48.112;11.622;2023-05-07T08:35:24;20.50;99.90
9658;DHT22;4867;48.112;11.622;2023-05-07T08:37:53;20.50;99.90
9658;DHT22;4867;48.112;11.622;2023-05-07T08:40:26;20.50;99.90
9658;DHT22;4867;48.112;11.622;2023-05-07T08:42:56;20.60;99.90
9658;DHT22;4867;48.112;11.622;2023-05-07T08:45:24;20.60;99.90
9658;DHT22;4867;48.112;11.622;2023-05-07T08:47:58;20.70;99.90
9658;DHT22;4867;48.112;11.622;2023-05-07T08:50:31;20.70;99.90
9658;DHT22;4867;48.112;11.622;2023-05-07T08:52:59;20.70;99.90
9658;DHT22;4867;48.112;11.622;2023-05-07T08:55:28;20.80;99.90
9658;DHT22;4867;48.112;11.622;2023-05-07T08:57:56;20.80;99.90
9658;DHT22;4867;48.112;11.622;2023-05-07T09:00:24;20.90;99.90
9658;DHT22;4867;48.112;11.622;2023-05-07T09:02:54;21.20;99.90
9658;DHT22;4867;48.112;11.622;2023-05-07T09:05:21;21.30;99.90
9658;DHT22;4867;48.112;11.622;2023-05-07T09:07:49;21.30;99.90
9658;DHT22;4867;48.112;11.622;2023-05-07T09:10:21;21.40;99.90
9658;DHT22;4867;48.112;11.622;2023-05-07T09:12:49;21.40;99.90
9658;DHT22;4867;48.112;11.622;2023-05-07T09:15:18;21.50;99.90
9658;DHT22;4867;48.112;11.622;2023-05-07T09:17:46;21.50;99.90
9658;DHT22;4867;48.112;11.622;2023-05-07T09:20:13;21.50;99.90
9658;DHT22;4867;48.112;11.622;2023-05-07T09:22:40;21.40;99.90
9658;DHT22;4867;48.112;11.622;2023-05-07T09:25:11;21.50;99.90
9658;DHT22;4867;48.112;11.622;2023-05-07T09:27:41;21.60;99.90
9658;DHT22;4867;48.112;11.622;2023-05-07T09:30:12;21.70;99.90
9658;DHT22;4867;48.112;11.622;2023-05-07T09:32:39;21.80;99.90
9658;DHT22;4867;48.112;11.622;2023-05-07T09:35:20;21.90;99.90
9658;DHT22;4867;48.112;11.622;2023-05-07T09:37:58;22.00;99.90
9658;DHT22;4867;48.112;11.622;2023-05-07T09:40:30;22.10;99.90
9658;DHT22;4867;48.112;11.622;2023-05-07T09:43:13;22.00;99.90
9658;DHT22;4867;48.112;11.622;2023-05-07T09:45:47;22.10;99.90
9658;DHT22;4867;48.112;11.622;2023-05-07T09:48:23;22.20;99.90
9658;DHT22;4867;48.112;11.622;2023-05-07T09:50:57;22.30;99.90
9658;DHT22;4867;48.112;11.622;2023-05-07T09:53:30;22.30;99.90
9658;DHT22;4867;48.112;11.622;2023-05-07T09:56:01;22.40;99.90
9658;DHT22;4867;48.112;11.622;2023-05-07T09:58:32;22.40;99.90
9658;DHT22;4867;48.112;11.622;2023-05-07T10:01:01;22.40;99.90
9658;DHT22;4867;48.112;11.622;2023-05-07T10:03:31;22.40;99.90
9658;DHT22;4867;48.112;11.622;2023-05-07T10:06:05;22.50;99.90
9658;DHT22;4867;48.112;11.622;2023-05-07T10:08:33;22.60;99.90
9658;DHT22;4867;48.112;11.622;2023-05-07T10:11:04;22.60;99.90
9658;DHT22;4867;48.112;11.622;2023-05-07T10:13:35;22.80;99.90
9658;DHT22;4867;48.112;11.622;2023-05-07T10:16:07;23.00;99.90
9658;DHT22;4867;48.112;11.622;2023-05-07T10:18:41;23.10;99.90
9658;DHT22;4867;48.112;11.622;2023-05-07T10:21:17;23.10;99.90
9658;DHT22;4867;48.112;11.622;2023-05-07T10:23:50;23.00;99.90
9658;DHT22;4867;48.112;11.622;2023-05-07T10:26:20;23.00;99.90
9658;DHT22;4867;48.112;11.622;2023-05-07T10:28:54;22.70;99.90
9658;DHT22;4867;48.112;11.622;2023-05-07T10:31:44;22.60;99.90
9658;DHT22;4867;48.112;11.622;2023-05-07T10:34:20;22.60;99.90
9658;DHT22;4867;48.112;11.622;2023-05-07T10:36:50;22.60;99.90
9658;DHT22;4867;48.112;11.622;2023-05-07T10:39:20;22.70;99.90
9658;DHT22;4867;48.112;11.622;2023-05-07T10:41:48;22.70;99.90
9658;DHT22;4867;48.112;11.622;2023-05-07T10:44:28;22.80;99.90
9658;DHT22;4867;48.112;11.622;2023-05-07T10:47:11;22.70;99.90
9658;DHT22;4867;48.112;11.622;2023-05-07T10:52:23;22.80;99.90
9658;DHT22;4867;48.112;11.622;2023-05-07T10:55:20;22.70;99.90
9658;DHT22;4867;48.112;11.622;2023-05-07T11:01:52;22.80;99.90
9658;DHT22;4867;48.112;11.622;2023-05-07T11:04:43;22.80;99.90
9658;DHT22;4867;48.112;11.622;2023-05-07T11:07:27;22.80;99.90
9658;DHT22;4867;48.112;11.622;2023-05-07T11:10:02;22.70;99.90
9658;DHT22;4867;48.112;11.622;2023-05-07T11:12:48;22.60;99.90
9658;DHT22;4867;48.112;11.622;2023-05-07T11:15:43;22.70;99.90
9658;DHT22;4867;48.112;11.622;2023-05-07T11:18:18;22.90;99.90
9658;DHT22;4867;48.112;11.622;2023-05-07T11:20:50;23.00;99.90
9658;DHT22;4867;48.112;11.622;2023-05-07T11:26:12;22.90;99.90
9658;DHT22;4867;48.112;11.622;2023-05-07T11:28:41;23.00;99.90
9658;DHT22;4867;48.112;11.622;2023-05-07T11:31:10;23.10;99.90
9658;DHT22;4867;48.112;11.622;2023-05-07T11:33:40;23.10;99.90
9658;DHT22;4867;48.112;11.622;2023-05-07T11:36:12;23.30;99.90
9658;DHT22;4867;48.112;11.622;2023-05-07T11:38:45;23.20;99.90
9658;DHT22;4867;48.112;11.622;2023-05-07T11:41:12;23.30;99.90
9658;DHT22;4867;48.112;11.622;2023-05-07T11:43:57;23.50;99.90
9658;DHT22;4867;48.112;11.622;2023-05-07T11:46:24;23.70;99.90
9658;DHT22;4867;48.112;11.622;2023-05-07T11:48:52;23.70;99.90
9658;DHT22;4867;48.112;11.622;2023-05-07T11:51:21;23.80;99.90
9658;DHT22;4867;48.112;11.622;2023-05-07T11:53:49;23.70;99.90
9658;DHT22;4867;48.112;11.622;2023-05-07T11:56:18;23.70;99.90
9658;DHT22;4867;48.112;11.622;2023-05-07T11:58:46;23.50;99.90
9658;DHT22;4867;48.112;11.622;2023-05-07T12:01:15;23.40;99.90
9658;DHT22;4867;48.112;11.622;2023-05-07T12:03:44;23.50;99.90
9658;DHT22;4867;48.112;11.622;2023-05-07T12:06:15;23.50;99.90
9658;DHT22;4867;48.112;11.622;2023-05-07T12:08:44;23.70;99.90
9658;DHT22;4867;48.112;11.622;2023-05-07T12:11:22;23.60;99.90
9658;DHT22;4867;48.112;11.622;2023-05-07T12:13:50;23.70;99.90
9658;DHT22;4867;48.112;11.622;2023-05-07T12:16:18;23.70;99.90
9658;DHT22;4867;48.112;11.622;2023-05-07T12:18:46;23.60;99.90
9658;DHT22;4867;48.112;11.622;2023-05-07T12:21:14;23.70;99.90
9658;DHT22;4867;48.112;11.622;2023-05-07T12:23:41;23.70;99.90
9658;DHT22;4867;48.112;11.622;2023-05-07T12:26:09;23.70;99.90
9658;DHT22;4867;48.112;11.622;2023-05-07T12:28:38;23.70;99.90
9658;DHT22;4867;48.112;11.622;2023-05-07T12:31:08;23.70;99.90
9658;DHT22;4867;48.112;11.622;2023-05-07T12:33:35;23.60;99.90
9658;DHT22;4867;48.112;11.622;2023-05-07T12:36:05;23.50;99.90
9658;DHT22;4867;48.112;11.622;2023-05-07T12:38:38;23.70;99.90
9658;DHT22;4867;48.112;11.622;2023-05-07T12:41:07;23.70;99.90
9658;DHT22;4867;48.112;11.622;2023-05-07T12:43:34;23.80;99.90
9658;DHT22;4867;48.112;11.622;2023-05-07T12:46:06;23.70;99.90
9658;DHT22;4867;48.112;11.622;2023-05-07T12:48:36;23.80;99.90
9658;DHT22;4867;48.112;11.622;2023-05-07T12:51:05;23.80;99.90
9658;DHT22;4867;48.112;11.622;2023-05-07T12:53:33;23.90;99.90
9658;DHT22;4867;48.112;11.622;2023-05-07T12:56:00;24.00;99.90
9658;DHT22;4867;48.112;11.622;2023-05-07T12:58:33;24.00;99.90
9658;DHT22;4867;48.112;11.622;2023-05-07T13:01:05;24.00;99.90
9658;DHT22;4867;48.112;11.622;2023-05-07T13:03:35;24.00;99.90
9658;DHT22;4867;48.112;11.622;2023-05-07T13:06:06;23.90;99.90
9658;DHT22;4867;48.112;11.622;2023-05-07T13:08:36;24.00;99.90
9658;DHT22;4867;48.112;11.622;2023-05-07T13:11:04;24.00;99.90
9658;DHT22;4867;48.112;11.622;2023-05-07T13:13:32;24.10;99.90
9658;DHT22;4867;48.112;11.622;2023-05-07T13:16:01;24.00;99.90
9658;DHT22;4867;48.112;11.622;2023-05-07T13:18:30;23.90;99.90
9658;DHT22;4867;48.112;11.622;2023-05-07T13:20:58;23.90;99.90
9658;DHT22;4867;48.112;11.622;2023-05-07T13:23:26;24.10;99.90
9658;DHT22;4867;48.112;11.622;2023-05-07T13:25:53;24.00;99.90
9658;DHT22;4867;48.112;11.622;2023-05-07T13:28:22;24.00;99.90
9658;DHT22;4867;48.112;11.622;2023-05-07T13:30:50;24.00;99.90
9658;DHT22;4867;48.112;11.622;2023-05-07T13:33:18;24.20;99.90
9658;DHT22;4867;48.112;11.622;2023-05-07T13:35:46;24.30;99.50
9658;DHT22;4867;48.112;11.622;2023-05-07T13:38:13;24.40;99.90
9658;DHT22;4867;48.112;11.622;2023-05-07T13:40:42;24.50;99.90
9658;DHT22;4867;48.112;11.622;2023-05-07T13:43:10;24.70;99.80
9658;DHT22;4867;48.112;11.622;2023-05-07T13:45:37;24.60;98.70
9658;DHT22;4867;48.112;11.622;2023-05-07T13:48:05;24.60;99.00
9658;DHT22;4867;48.112;11.622;2023-05-07T13:50:32;24.60;98.90
9658;DHT22;4867;48.112;11.622;2023-05-07T13:52:59;24.50;98.30
9658;DHT22;4867;48.112;11.622;2023-05-07T13:55:28;24.40;98.20
9658;DHT22;4867;48.112;11.622;2023-05-07T13:57:57;24.50;98.40
9658;DHT22;4867;48.112;11.622;2023-05-07T14:00:26;24.60;98.30
9658;DHT22;4867;48.112;11.622;2023-05-07T14:02:54;24.60;98.40
9658;DHT22;4867;48.112;11.622;2023-05-07T14:05:22;24.60;98.70
9658;DHT22;4867;48.112;11.622;2023-05-07T14:07:54;24.50;97.80
9658;DHT22;4867;48.112;11.622;2023-05-07T14:10:22;24.40;97.70
9658;DHT22;4867;48.112;11.622;2023-05-07T14:12:49;24.30;98.40
9658;DHT22;4867;48.112;11.622;2023-05-07T14:15:16;24.30;98.10
9658;DHT22;4867;48.112;11.622;2023-05-07T14:17:44;24.30;98.30
9658;DHT22;4867;48.112;11.622;2023-05-07T14:20:12;24.30;98.50
9658;DHT22;4867;48.112;11.622;2023-05-07T14:22:40;24.20;98.90
9658;DHT22;4867;48.112;11.622;2023-05-07T14:25:08;24.10;98.70
9658;DHT22;4867;48.112;11.622;2023-05-07T14:27:37;24.00;99.00
9658;DHT22;4867;48.112;11.622;2023-05-07T14:30:05;23.90;99.70
9658;DHT22;4867;48.112;11.622;2023-05-07T14:32:33;24.00;99.40
9658;DHT22;4867;48.112;11.622;2023-05-07T14:35:00;23.90;99.50
9658;DHT22;4867;48.112;11.622;2023-05-07T14:37:27;23.90;99.90
9658;DHT22;4867;48.112;11.622;2023-05-07T14:39:55;23.90;99.40
9658;DHT22;4867;48.112;11.622;2023-05-07T14:42:22;23.90;99.10
9658;DHT22;4867;48.112;11.622;2023-05-07T14:44:49;23.90;99.50
9658;DHT22;4867;48.112;11.622;2023-05-07T14:47:17;24.00;99.90
9658;DHT22;4867;48.112;11.622;2023-05-07T14:49:46;24.00;99.90
9658;DHT22;4867;48.112;11.622;2023-05-07T14:52:13;23.90;99.90
9658;DHT22;4867;48.112;11.622;2023-05-07T14:54:40;23.80;99.90
9658;DHT22;4867;48.112;11.622;2023-05-07T14:57:08;23.80;99.90
9658;DHT22;4867;48.112;11.622;2023-05-07T14:59:37;23.70;99.90
9658;DHT22;4867;48.112;11.622;2023-05-07T15:02:06;23.80;99.90
9658;DHT22;4867;48.112;11.622;2023-05-07T15:04:36;23.80;99.90
9658;DHT22;4867;48.112;11.622;2023-05-07T15:07:05;23.70;99.90
9658;DHT22;4867;48.112;11.622;2023-05-07T15:09:32;23.60;99.90
9658;DHT22;4867;48.112;11.622;2023-05-07T15:11:59;23.40;99.90
9658;DHT22;4867;48.112;11.622;2023-05-07T15:14:27;23.20;99.90
9658;DHT22;4867;48.112;11.622;2023-05-07T15:16:54;23.20;99.90
9658;DHT22;4867;48.112;11.622;2023-05-07T15:19:21;23.10;99.90
9658;DHT22;4867;48.112;11.622;2023-05-07T15:21:49;23.00;99.90
9658;DHT22;4867;48.112;11.622;2023-05-07T15:24:16;23.00;99.90
9658;DHT22;4867;48.112;11.622;2023-05-07T15:26:43;22.90;99.90
9658;DHT22;4867;48.112;11.622;2023-05-07T15:29:11;22.80;99.90
9658;DHT22;4867;48.112;11.622;2023-05-07T15:31:38;22.70;99.90
9658;DHT22;4867;48.112;11.622;2023-05-07T15:34:06;22.70;99.90
9658;DHT22;4867;48.112;11.622;2023-05-07T15:36:33;22.60;99.90
9658;DHT22;4867;48.112;11.622;2023-05-07T15:39:01;22.60;99.90
9658;DHT22;4867;48.112;11.622;2023-05-07T15:41:30;22.60;99.90
9658;DHT22;4867;48.112;11.622;2023-05-07T15:43:57;22.50;99.90
9658;DHT22;4867;48.112;11.622;2023-05-07T15:46:25;22.50;99.90
9658;DHT22;4867;48.112;11.622;2023-05-07T15:48:53;22.50;99.90
9658;DHT22;4867;48.112;11.622;2023-05-07T15:51:20;22.50;99.90
9658;DHT22;4867;48.112;11.622;2023-05-07T15:53:49;22.40;99.90
9658;DHT22;4867;48.112;11.622;2023-05-07T15:56:17;22.20;99.90
9658;DHT22;4867;48.112;11.622;2023-05-07T15:58:45;22.00;99.90
9658;DHT22;4867;48.112;11.622;2023-05-07T16:01:12;21.90;99.90
9658;DHT22;4867;48.112;11.622;2023-05-07T16:03:40;21.80;99.90
9658;DHT22;4867;48.112;11.622;2023-05-07T16:06:08;21.70;99.90
9658;DHT22;4867;48.112;11.622;2023-05-07T16:08:37;21.70;99.90